Time;durP1;ratioP1;P1;durP2;ratioP2;P2;SDS_P1;SDS_P2;PMS_P1;PMS_P2;Temp;Humidity;BMP_temperature;BMP_pressure;BME280_temperature;BME280_humidity;BME280_pressure;Samples;Min_cycle;Max_cycle;Signal;HPM_P1;HPM_P2
2023/05/30 00:03:23;;;;;;;7.35;2.35;;;;;;;17.70;40.34;100842.00;10300414;28;20074;-63
2023/05/30 00:08:26;;;;;;;10.70;1.20;;;;;;;17.62;40.12;100849.31;10291671;28;20053;-63
2023/05/30 00:13:28;;;;;;;6.03;0.90;;;;;;;17.57;40.36;100840.94;10295150;28;20045;-63
2023/05/30 00:18:34;;;;;;;6.22;0.77;;;;;;;17.54;40.45;100843.28;10295356;28;20042;-64
2023/05/30 00:23:37;;;;;;;6.10;0.87;;;;;;;17.50;40.42;100839.31;10293717;28;20046;-65
2023/05/30 00:28:39;;;;;;;5.90;0.85;;;;;;;17.45;40.70;100843.44;10293603;28;20042;-63
2023/05/30 00:33:40;;;;;;;6.72;0.90;;;;;;;17.34;41.25;100840.56;10296260;28;20080;-64
2023/05/30 00:38:42;;;;;;;4.47;0.82;;;;;;;17.28;41.17;100838.66;10295488;28;20096;-63
2023/05/30 00:43:44;;;;;;;6.32;1.40;;;;;;;17.12;41.48;100835.31;10298756;28;20145;-64
2023/05/30 00:48:46;;;;;;;12.30;1.00;;;;;;;17.12;41.48;100837.16;10292290;28;20055;-63
2023/05/30 00:53:47;;;;;;;9.50;0.95;;;;;;;17.08;41.66;100836.78;10297264;28;20047;-64
2023/05/30 00:58:51;;;;;;;6.03;0.80;;;;;;;17.06;41.65;100836.13;10295672;28;20515;-65
2023/05/30 01:03:54;;;;;;;6.32;0.80;;;;;;;17.01;42.06;100844.06;10292678;28;20060;-63
2023/05/30 01:08:58;;;;;;;8.80;1.08;;;;;;;16.94;42.24;100837.78;10293106;28;20056;-62
2023/05/30 01:14:13;;;;;;;13.38;1.35;;;;;;;16.89;42.39;100846.53;10284565;28;20371;-62
2023/05/30 01:19:34;;;;;;;6.05;0.77;;;;;;;16.80;42.71;100837.69;10295964;28;20046;-62
2023/05/30 01:24:44;;;;;;;9.15;0.98;;;;;;;16.78;42.81;100850.66;10298773;28;20039;-62
2023/05/30 01:29:47;;;;;;;6.28;1.10;;;;;;;16.74;43.15;100843.13;10295904;28;20051;-63
2023/05/30 01:34:49;;;;;;;5.97;0.88;;;;;;;16.67;43.27;100845.84;10299675;28;20045;-62
2023/05/30 01:39:50;;;;;;;10.35;1.73;;;;;;;16.56;43.82;100841.81;10309082;28;20202;-62
2023/05/30 01:45:01;;;;;;;5.75;1.15;;;;;;;16.47;44.08;100843.06;10305083;28;20050;-62
2023/05/30 01:50:10;;;;;;;8.27;1.10;;;;;;;16.43;44.09;100849.94;10302451;28;20437;-63
2023/05/30 01:55:13;;;;;;;6.28;1.23;;;;;;;16.38;44.42;100853.22;10301200;28;20043;-62
2023/05/30 02:00:16;;;;;;;10.07;1.00;;;;;;;16.35;44.68;100859.06;10300517;28;20538;-63
2023/05/30 02:05:18;;;;;;;8.02;1.13;;;;;;;16.25;44.69;100855.88;10303886;28;20057;-63
2023/05/30 02:10:19;;;;;;;8.95;1.17;;;;;;;16.20;45.08;100858.38;10303089;28;20045;-64
2023/05/30 02:15:21;;;;;;;9.30;1.20;;;;;;;16.16;45.38;100867.94;10299632;28;20501;-64
2023/05/30 02:20:22;;;;;;;12.52;2.03;;;;;;;16.10;45.53;100875.00;10301094;28;20053;-63
2023/05/30 02:25:24;;;;;;;12.15;1.20;;;;;;;16.03;45.66;100871.38;10294369;28;20137;-63
2023/05/30 02:30:26;;;;;;;9.50;1.15;;;;;;;16.01;45.83;100865.34;10306252;28;20062;-62
2023/05/30 02:35:27;;;;;;;6.47;1.20;;;;;;;15.93;46.03;100858.19;10302968;28;20062;-65
2023/05/30 02:40:29;;;;;;;10.93;1.65;;;;;;;15.92;46.09;100877.38;10300735;28;20062;-64
2023/05/30 02:45:30;;;;;;;10.52;1.10;;;;;;;15.89;46.34;100875.06;10298631;28;20505;-62
2023/05/30 02:50:32;;;;;;;14.88;2.88;;;;;;;15.78;46.52;100868.31;10298878;28;20042;-63
2023/05/30 02:55:33;;;;;;;11.38;1.77;;;;;;;15.76;46.84;100870.41;10280671;28;20070;-63
2023/05/30 03:00:35;;;;;;;9.23;1.08;;;;;;;15.70;46.89;100876.53;10298168;28;20070;-63
2023/05/30 03:05:36;;;;;;;10.23;2.05;;;;;;;15.59;47.16;100867.94;10299912;28;20073;-63
2023/05/30 03:10:38;;;;;;;9.68;1.15;;;;;;;15.55;47.25;100860.41;10298717;28;20046;-63
2023/05/30 03:15:40;;;;;;;14.13;1.92;;;;;;;15.48;47.47;100863.03;10298452;28;20039;-64
2023/05/30 03:20:42;;;;;;;7.53;1.25;;;;;;;15.47;47.34;100866.78;10296122;28;20055;-66
2023/05/30 03:25:43;;;;;;;6.78;1.38;;;;;;;15.46;47.38;100876.78;10292852;28;20132;-65
2023/05/30 03:30:45;;;;;;;11.95;1.35;;;;;;;15.42;47.26;100878.22;10304000;28;20042;-66
2023/05/30 03:35:46;;;;;;;11.00;1.60;;;;;;;15.37;47.58;100885.25;10295487;28;20042;-64
2023/05/30 03:40:48;;;;;;;10.02;1.13;;;;;;;15.35;47.65;100890.03;10277491;28;20556;-64
2023/05/30 03:45:50;;;;;;;5.97;1.52;;;;;;;15.35;47.49;100898.16;10302907;28;20085;-64
2023/05/30 03:50:51;;;;;;;10.20;0.93;;;;;;;15.40;47.30;100895.69;10293196;28;20058;-65
2023/05/30 03:55:52;;;;;;;6.78;1.20;;;;;;;15.41;47.26;100908.22;10302043;28;20076;-66
2023/05/30 04:00:54;;;;;;;7.85;0.98;;;;;;;15.41;47.30;100919.88;10297763;28;20505;-65
2023/05/30 04:05:56;;;;;;;9.85;1.33;;;;;;;15.33;47.50;100914.59;10293786;28;20046;-66
2023/05/30 04:10:57;;;;;;;12.75;1.15;;;;;;;15.33;47.67;100913.78;10284841;28;20166;-65
2023/05/30 04:16:00;;;;;;;9.80;2.08;;;;;;;15.34;47.63;100916.25;10298023;28;20042;-65
2023/05/30 04:21:02;;;;;;;8.63;1.13;;;;;;;15.36;47.50;100916.91;10295747;28;20054;-65
2023/05/30 04:26:04;;;;;;;8.40;1.65;;;;;;;15.36;47.81;100921.50;10294321;28;20057;-66
2023/05/30 04:31:06;;;;;;;11.43;1.63;;;;;;;15.41;47.58;100922.59;10301069;28;20395;-65
2023/05/30 04:36:21;;;;;;;13.02;0.85;;;;;;;15.40;47.30;100933.63;10298502;28;20046;-65
2023/05/30 04:41:24;;;;;;;14.48;1.45;;;;;;;15.35;47.52;100939.63;10296534;28;20050;-65
2023/05/30 04:46:28;;;;;;;6.10;0.80;;;;;;;15.48;47.30;100936.19;10298002;28;20043;-65
2023/05/30 04:51:30;;;;;;;5.88;0.98;;;;;;;15.45;47.31;100937.44;10294148;28;20053;-65
2023/05/30 04:56:32;;;;;;;10.32;1.85;;;;;;;15.48;47.22;100944.31;10300357;28;20058;-65
2023/05/30 05:01:35;;;;;;;8.68;1.67;;;;;;;15.49;47.35;100945.19;10283558;28;20066;-64
2023/05/30 05:06:37;;;;;;;7.82;0.80;;;;;;;15.55;47.24;100947.94;10294403;28;20134;-65
2023/05/30 05:11:39;;;;;;;9.32;1.17;;;;;;;15.49;47.51;100954.13;10303792;28;20136;-65
2023/05/30 05:16:40;;;;;;;9.65;1.15;;;;;;;15.53;47.28;100958.13;10299493;28;20057;-65
2023/05/30 05:21:42;;;;;;;9.02;2.10;;;;;;;15.62;47.14;100953.41;10300086;28;20050;-65
2023/05/30 05:26:43;;;;;;;6.28;1.23;;;;;;;15.60;47.24;100966.31;10296184;28;20085;-65
2023/05/30 05:31:45;;;;;;;11.00;1.15;;;;;;;15.54;47.33;100957.13;10300609;28;20843;-65
2023/05/30 05:36:47;;;;;;;5.10;0.80;;;;;;;15.56;47.41;100965.03;10302104;28;20133;-64
2023/05/30 05:41:48;;;;;;;12.85;1.20;;;;;;;15.56;47.42;100967.75;10301092;28;20043;-65
2023/05/30 05:46:50;;;;;;;10.90;0.98;;;;;;;15.66;47.22;100960.97;10275322;28;20081;-65
2023/05/30 05:51:52;;;;;;;5.90;0.77;;;;;;;15.78;47.00;100960.50;10298779;28;20065;-64
2023/05/30 05:56:53;;;;;;;6.50;1.38;;;;;;;15.88;46.90;100961.00;10299317;28;20058;-65
2023/05/30 06:01:55;;;;;;;6.65;1.23;;;;;;;16.03;46.81;100971.72;10298955;28;20077;-65
2023/05/30 06:06:57;;;;;;;8.52;1.10;;;;;;;16.12;46.63;100972.44;10300188;28;20053;-66
2023/05/30 06:11:59;;;;;;;6.93;1.40;;;;;;;16.16;46.30;100969.13;10302776;28;20047;-66
2023/05/30 06:17:01;;;;;;;7.22;1.00;;;;;;;16.19;46.41;100965.19;10300247;28;20142;-65
2023/05/30 06:22:02;;;;;;;10.93;1.70;;;;;;;16.34;46.03;100976.75;10298850;28;20081;-65
2023/05/30 06:27:05;;;;;;;5.13;1.75;;;;;;;16.43;45.88;100972.88;10299495;28;20046;-65
2023/05/30 06:32:10;;;;;;;12.32;1.00;;;;;;;16.50;46.02;100967.47;10295782;28;20060;-64
2023/05/30 06:37:17;;;;;;;6.88;0.80;;;;;;;16.66;45.95;100977.16;10302213;28;20041;-60
2023/05/30 06:42:20;;;;;;;8.35;0.63;;;;;;;16.83;45.55;100975.81;10296439;28;20054;-61
2023/05/30 06:47:22;;;;;;;10.13;0.93;;;;;;;16.88;45.71;100977.91;10292380;28;20039;-60
2023/05/30 06:52:23;;;;;;;5.00;0.88;;;;;;;16.96;45.60;100977.78;10297577;28;20050;-61
2023/05/30 06:57:25;;;;;;;8.65;1.00;;;;;;;17.08;45.52;100974.44;10296968;28;20043;-60
2023/05/30 07:02:26;;;;;;;6.93;1.33;;;;;;;17.30;45.25;100980.56;10297539;28;20052;-61
2023/05/30 07:07:28;;;;;;;7.28;0.93;;;;;;;17.51;45.40;100985.03;10280497;28;20049;-58
2023/05/30 07:12:30;;;;;;;8.38;1.00;;;;;;;17.80;44.72;100991.97;10305735;28;20046;-58
2023/05/30 07:17:31;;;;;;;9.07;1.40;;;;;;;17.89;44.22;100995.34;10303492;28;20069;-60
2023/05/30 07:22:33;;;;;;;8.98;1.27;;;;;;;18.01;43.94;100990.97;10295612;28;20613;-62
2023/05/30 07:27:34;;;;;;;6.47;0.80;;;;;;;17.98;43.75;100989.50;10294911;28;20053;-60
2023/05/30 07:32:36;;;;;;;8.77;0.90;;;;;;;18.01;43.41;100999.97;10292430;28;20509;-62
2023/05/30 07:37:37;;;;;;;6.38;1.27;;;;;;;18.11;43.34;100993.25;10296609;28;20120;-63
2023/05/30 07:42:39;;;;;;;4.82;0.90;;;;;;;18.22;43.12;100992.63;10295429;28;20088;-61
2023/05/30 07:47:40;;;;;;;6.75;0.70;;;;;;;18.48;42.71;100982.75;10294368;28;20042;-62
2023/05/30 07:52:44;;;;;;;7.38;1.02;;;;;;;18.70;42.50;100983.31;10263294;28;20043;-61
2023/05/30 07:57:45;;;;;;;6.95;1.05;;;;;;;18.82;41.82;100982.47;10255886;28;20494;-62
2023/05/30 08:02:47;;;;;;;3.97;0.75;;;;;;;18.97;41.55;100978.66;10257380;28;20502;-62
2023/05/30 08:07:48;;;;;;;5.18;0.80;;;;;;;19.07;40.60;100983.63;10254753;28;20050;-61
2023/05/30 08:12:50;;;;;;;5.90;0.70;;;;;;;19.21;40.16;100980.66;10256922;28;20230;-61
2023/05/30 08:17:53;;;;;;;5.10;0.70;;;;;;;19.42;40.00;100975.91;10252064;28;20043;-60
2023/05/30 08:22:55;;;;;;;3.40;0.80;;;;;;;19.59;39.58;100987.13;10253705;28;20085;-62
2023/05/30 08:27:59;;;;;;;5.13;0.82;;;;;;;19.78;39.00;100971.69;10256827;28;20556;-61
2023/05/30 08:33:00;;;;;;;5.40;1.65;;;;;;;19.92;38.78;100977.88;10256080;28;20046;-61
2023/05/30 08:38:02;;;;;;;6.05;0.60;;;;;;;20.08;38.50;100979.22;10254768;28;20410;-62
2023/05/30 08:43:03;;;;;;;9.65;1.98;;;;;;;20.19;38.32;100975.75;10257001;28;20552;-62
2023/05/30 08:48:06;;;;;;;5.60;0.60;;;;;;;20.37;38.02;100980.41;10254362;28;20042;-62
2023/05/30 08:53:11;;;;;;;7.38;1.10;;;;;;;20.59;37.72;100969.91;10288032;28;20069;-60
2023/05/30 08:58:24;;;;;;;5.82;1.00;;;;;;;20.70;38.02;100963.72;10297533;28;20137;-61
2023/05/30 09:03:27;;;;;;;5.60;1.00;;;;;;;20.76;37.05;100971.00;10286388;28;20043;-62
2023/05/30 09:08:29;;;;;;;7.88;1.58;;;;;;;20.82;37.00;100963.78;10289289;28;20050;-61
2023/05/30 09:13:31;;;;;;;3.10;0.75;;;;;;;20.92;36.81;100961.34;10266932;28;20070;-61
2023/05/30 09:18:32;;;;;;;4.88;0.90;;;;;;;20.99;36.95;100956.63;10290299;28;20038;-62
2023/05/30 09:23:36;;;;;;;7.00;0.93;;;;;;;21.23;36.50;100954.00;10285942;28;20081;-62
2023/05/30 09:28:37;;;;;;;3.60;0.60;;;;;;;21.32;36.41;100949.03;10290816;28;20047;-61
2023/05/30 09:33:52;;;;;;;6.60;0.85;;;;;;;21.55;35.44;100951.03;10289056;28;20086;-60
2023/05/30 09:39:05;;;;;;;4.68;0.70;;;;;;;21.83;34.85;100952.28;10298132;28;20054;-61
2023/05/30 09:44:10;;;;;;;8.48;0.80;;;;;;;21.99;34.42;100940.63;10290011;28;20061;-59
2023/05/30 09:49:12;;;;;;;5.20;0.70;;;;;;;22.22;34.78;100945.28;10286768;28;20051;-61
2023/05/30 09:54:14;;;;;;;6.10;1.00;;;;;;;22.51;34.13;100956.34;10303934;28;20046;-59
2023/05/30 09:59:15;;;;;;;6.82;1.30;;;;;;;22.59;33.71;100953.25;10311475;28;20501;-57
2023/05/30 10:04:22;;;;;;;4.55;0.90;;;;;;;22.70;33.63;100935.09;10319192;28;20050;-60
2023/05/30 10:09:24;;;;;;;3.20;0.70;;;;;;;22.87;32.97;100929.69;10320900;28;20146;-60
2023/05/30 10:14:25;;;;;;;6.35;0.93;;;;;;;22.98;32.75;100931.53;10296900;28;20121;-59
2023/05/30 10:20:00;;;;;;;3.03;1.10;;;;;;;23.16;32.27;100928.66;10312224;28;20401;-60
2023/05/30 10:25:03;;;;;;;5.68;0.60;;;;;;;23.22;32.10;100939.72;10319006;28;20056;-60
2023/05/30 10:30:07;;;;;;;5.85;1.05;;;;;;;23.29;32.15;100926.69;10325004;28;20058;-57
2023/05/30 10:35:15;;;;;;;4.97;0.70;;;;;;;23.54;31.85;100931.78;10327878;28;20616;-61
2023/05/30 10:40:21;;;;;;;4.05;0.73;;;;;;;23.84;31.36;100927.94;10323776;28;20049;-59
2023/05/30 10:45:35;;;;;;;3.70;0.70;;;;;;;23.90;31.80;100926.91;10317087;28;20071;-60
2023/05/30 10:50:40;;;;;;;7.07;1.00;;;;;;;24.20;31.05;100926.53;10322040;28;20034;-59
2023/05/30 10:55:45;;;;;;;7.60;0.75;;;;;;;24.15;30.96;100915.47;10306641;28;20066;-57
2023/05/30 11:00:49;;;;;;;9.27;1.00;;;;;;;24.38;30.21;100911.66;10297084;28;20045;-59
2023/05/30 11:05:55;;;;;;;5.57;0.95;;;;;;;24.55;30.37;100895.16;10303411;28;20046;-60
2023/05/30 11:10:56;;;;;;;4.13;0.70;;;;;;;24.58;30.00;100891.88;10298725;28;20058;-59
2023/05/30 11:15:58;;;;;;;8.82;1.05;;;;;;;24.69;29.83;100895.59;10288443;28;20062;-61
2023/05/30 11:21:00;;;;;;;3.65;0.75;;;;;;;24.80;29.55;100886.38;10300955;28;20058;-61
2023/05/30 11:26:03;;;;;;;2.42;0.50;;;;;;;24.87;29.00;100872.44;10311645;28;20046;-60
2023/05/30 11:31:16;;;;;;;4.93;0.68;;;;;;;24.92;28.46;100878.81;10308220;28;20080;-60
2023/05/30 11:36:18;;;;;;;4.53;0.50;;;;;;;25.04;28.96;100877.81;10305656;28;20043;-58
2023/05/30 11:41:22;;;;;;;3.58;0.50;;;;;;;25.12;28.01;100878.19;10301279;28;20050;-60
2023/05/30 11:46:24;;;;;;;8.07;1.45;;;;;;;25.23;27.71;100870.06;10298841;28;20057;-61
2023/05/30 11:51:26;;;;;;;7.32;0.80;;;;;;;25.57;28.33;100876.13;10299398;28;20049;-60
2023/05/30 11:56:31;;;;;;;4.30;0.77;;;;;;;25.64;27.85;100867.66;10320525;28;20452;-60
2023/05/30 12:01:33;;;;;;;5.13;0.50;;;;;;;25.81;28.04;100862.81;10309419;28;20042;-60
2023/05/30 12:06:35;;;;;;;7.30;1.10;;;;;;;25.81;27.74;100867.47;10284895;28;20049;-60
2023/05/30 12:11:37;;;;;;;4.55;0.60;;;;;;;25.96;26.50;100869.56;10309729;28;20093;-59
2023/05/30 12:16:38;;;;;;;3.47;0.82;;;;;;;26.20;26.85;100853.44;10293128;28;20521;-59
2023/05/30 12:21:42;;;;;;;3.45;0.70;;;;;;;26.33;26.75;100866.72;10310126;28;20101;-62
2023/05/30 12:26:48;;;;;;;4.53;0.88;;;;;;;26.44;26.97;100845.53;10305233;28;20050;-58
2023/05/30 12:31:49;;;;;;;10.75;1.05;;;;;;;26.74;26.97;100846.75;10300965;28;20087;-60
2023/05/30 12:36:55;;;;;;;8.63;0.90;;;;;;;26.68;27.30;100843.19;10280464;28;20129;-59
2023/05/30 12:41:57;;;;;;;6.97;0.80;;;;;;;27.08;26.74;100841.59;10269343;28;20077;-59
2023/05/30 12:47:01;;;;;;;4.88;0.85;;;;;;;27.12;26.81;100848.22;10283299;28;20050;-58
2023/05/30 12:52:04;;;;;;;9.25;0.88;;;;;;;27.25;26.66;100828.38;10296789;28;20490;-59
2023/05/30 12:57:05;;;;;;;3.17;0.68;;;;;;;27.40;26.51;100841.34;10287402;28;20034;-62
2023/05/30 13:02:09;;;;;;;5.40;0.82;;;;;;;27.65;26.18;100845.22;10267848;28;20130;-58
2023/05/30 13:07:12;;;;;;;4.57;0.75;;;;;;;27.97;26.25;100841.31;10285120;28;20057;-59
2023/05/30 13:12:14;;;;;;;8.18;0.82;;;;;;;27.89;26.25;100838.00;10298460;28;20038;-60
2023/05/30 13:17:16;;;;;;;3.47;0.65;;;;;;;27.84;26.31;100840.75;10278042;28;20042;-60
2023/05/30 13:22:17;;;;;;;7.68;0.70;;;;;;;28.10;26.52;100840.69;10302959;28;20565;-57
2023/05/30 13:27:20;;;;;;;4.68;0.80;;;;;;;28.32;25.79;100833.97;10282960;28;20557;-60
2023/05/30 13:32:22;;;;;;;5.80;1.00;;;;;;;28.03;26.08;100821.66;10311701;28;20047;-60
2023/05/30 13:37:23;;;;;;;7.13;1.00;;;;;;;28.36;26.17;100818.47;10296953;28;20039;-58
2023/05/30 13:42:25;;;;;;;6.28;0.90;;;;;;;28.23;26.10;100820.75;10296086;28;20046;-59
2023/05/30 13:47:27;;;;;;;7.55;1.00;;;;;;;28.15;26.09;100810.28;10304877;28;20043;-59
2023/05/30 13:52:29;;;;;;;4.95;0.90;;;;;;;28.42;25.74;100803.53;10301148;28;20069;-59
2023/05/30 13:57:30;;;;;;;6.40;1.08;;;;;;;28.35;26.26;100808.53;10281764;28;20097;-57
2023/05/30 14:02:32;;;;;;;4.05;0.93;;;;;;;28.33;26.10;100803.28;10298030;28;20149;-58
2023/05/30 14:07:34;;;;;;;5.68;0.82;;;;;;;28.20;26.17;100801.97;10303084;28;20430;-59
2023/05/30 14:12:35;;;;;;;6.15;0.73;;;;;;;28.29;26.49;100803.00;10309383;28;20066;-58
2023/05/30 14:17:37;;;;;;;8.10;0.90;;;;;;;28.59;26.46;100795.69;10303025;28;20080;-60
2023/05/30 14:22:39;;;;;;;5.32;1.23;;;;;;;28.55;26.68;100791.03;10294803;28;20490;-60
2023/05/30 14:27:42;;;;;;;5.97;0.85;;;;;;;28.69;26.65;100786.50;10300795;28;20038;-62
2023/05/30 14:32:44;;;;;;;7.88;0.95;;;;;;;29.00;26.16;100777.97;10298512;28;20050;-60
2023/05/30 14:37:46;;;;;;;3.58;0.77;;;;;;;29.44;25.66;100777.91;10302415;28;20165;-60
2023/05/30 14:42:48;;;;;;;7.72;0.70;;;;;;;29.63;25.83;100782.69;10303792;28;20413;-59
2023/05/30 14:47:50;;;;;;;4.43;0.95;;;;;;;29.78;25.30;100773.38;10302100;28;20094;-59
2023/05/30 14:52:51;;;;;;;4.57;0.70;;;;;;;29.83;24.86;100782.47;10299198;28;20074;-60
2023/05/30 14:57:53;;;;;;;5.75;0.82;;;;;;;29.79;25.42;100778.66;10294869;28;20372;-57
2023/05/30 15:02:55;;;;;;;6.47;0.90;;;;;;;29.81;24.88;100779.19;10299557;28;20054;-57
2023/05/30 15:07:56;;;;;;;5.95;0.82;;;;;;;29.84;25.25;100781.38;10306366;28;20046;-58
2023/05/30 15:12:59;;;;;;;10.40;0.90;;;;;;;29.72;24.76;100780.13;10305607;28;20516;-58
2023/05/30 15:18:01;;;;;;;9.93;1.52;;;;;;;29.90;25.06;100776.59;10309101;28;20087;-58
2023/05/30 15:23:02;;;;;;;7.53;1.10;;;;;;;29.72;25.19;100764.34;10289686;28;20081;-57
2023/05/30 15:28:04;;;;;;;6.53;1.00;;;;;;;30.06;24.63;100771.69;10293269;28;20034;-58
2023/05/30 15:33:05;;;;;;;4.88;1.20;;;;;;;30.24;24.81;100779.19;10295200;28;20050;-58
2023/05/30 15:38:07;;;;;;;4.85;1.20;;;;;;;30.19;24.38;100767.34;10303771;28;20505;-57
2023/05/30 15:43:10;;;;;;;4.07;1.15;;;;;;;30.15;24.52;100777.38;10304015;28;20137;-59
2023/05/30 15:48:12;;;;;;;4.93;1.08;;;;;;;30.14;25.25;100778.53;10303957;28;20059;-57
2023/05/30 15:53:14;;;;;;;8.13;0.73;;;;;;;30.30;24.51;100770.81;10298172;28;21748;-59
2023/05/30 15:58:16;;;;;;;3.65;1.05;;;;;;;30.13;24.70;100769.34;10300775;28;20505;-58
2023/05/30 16:03:17;;;;;;;7.35;1.10;;;;;;;30.23;24.67;100776.72;10285511;28;20038;-55
2023/05/30 16:08:19;;;;;;;7.40;1.55;;;;;;;30.48;24.67;100777.53;10289917;28;20056;-57
2023/05/30 16:13:22;;;;;;;2.50;0.90;;;;;;;30.40;24.31;100765.97;10300522;28;20062;-58
2023/05/30 16:18:23;;;;;;;4.47;0.95;;;;;;;30.82;23.78;100767.00;10278816;28;20051;-57
2023/05/30 16:23:25;;;;;;;5.70;0.82;;;;;;;30.83;24.01;100763.09;10293761;28;20039;-60
2023/05/30 16:28:27;;;;;;;3.90;0.90;;;;;;;30.97;23.61;100749.31;10267798;28;20038;-60
2023/05/30 16:33:28;;;;;;;6.22;1.25;;;;;;;31.18;23.72;100751.72;10298992;28;20513;-59
2023/05/30 16:38:33;;;;;;;5.00;0.90;;;;;;;31.00;23.81;100743.16;10301583;28;20057;-59
2023/05/30 16:43:36;;;;;;;8.15;1.40;;;;;;;30.99;23.52;100746.22;10300319;28;20074;-60
2023/05/30 16:48:38;;;;;;;5.65;0.90;;;;;;;30.96;23.33;100750.41;10272906;28;20054;-59
2023/05/30 16:53:39;;;;;;;6.88;1.33;;;;;;;30.98;23.48;100753.72;10295184;28;20049;-58
2023/05/30 16:58:41;;;;;;;5.22;1.00;;;;;;;30.98;23.30;100755.69;10297966;28;20061;-58
2023/05/30 17:03:43;;;;;;;4.65;1.48;;;;;;;30.91;23.89;100758.03;10301874;28;20043;-60
2023/05/30 17:08:44;;;;;;;3.75;0.65;;;;;;;30.92;23.32;100754.94;10299416;28;20688;-59
2023/05/30 17:13:46;;;;;;;4.30;0.77;;;;;;;30.78;23.64;100754.84;10280402;28;20502;-64
2023/05/30 17:18:47;;;;;;;9.00;1.10;;;;;;;31.12;23.63;100752.94;10288802;28;20052;-60
2023/05/30 17:23:49;;;;;;;5.93;0.80;;;;;;;31.37;23.23;100754.44;10267910;28;20430;-60
2023/05/30 17:28:51;;;;;;;8.95;1.35;;;;;;;31.54;23.46;100748.34;10292578;28;20518;-58
2023/05/30 17:33:53;;;;;;;7.80;1.02;;;;;;;31.39;23.49;100760.50;10299719;28;20050;-58
2023/05/30 17:38:55;;;;;;;5.22;1.30;;;;;;;31.68;23.16;100756.69;10298099;28;20056;-58
2023/05/30 17:43:56;;;;;;;7.60;1.05;;;;;;;31.52;23.37;100762.53;10298975;28;20050;-58
2023/05/30 17:48:57;;;;;;;4.80;0.82;;;;;;;31.48;23.32;100769.84;10286886;28;20050;-58
2023/05/30 17:54:00;;;;;;;9.65;0.70;;;;;;;31.50;23.19;100769.50;10297741;28;20050;-57
2023/05/30 17:59:03;;;;;;;6.10;0.85;;;;;;;31.20;23.87;100766.13;10300197;28;20533;-60
2023/05/30 18:04:05;;;;;;;4.60;0.75;;;;;;;31.09;23.60;100771.03;10297140;28;20066;-60
2023/05/30 18:09:06;;;;;;;6.88;1.10;;;;;;;30.48;24.28;100772.00;10301230;28;20352;-59
2023/05/30 18:14:11;;;;;;;4.10;0.88;;;;;;;29.37;24.92;100776.59;10274797;28;20054;-58
2023/05/30 18:19:12;;;;;;;12.13;1.10;;;;;;;28.34;26.00;100770.91;10291191;28;20047;-60
2023/05/30 18:24:14;;;;;;;5.63;0.82;;;;;;;27.75;26.82;100776.13;10288359;28;20069;-58
2023/05/30 18:29:15;;;;;;;4.35;0.88;;;;;;;27.18;27.38;100791.09;10302177;28;20042;-59
2023/05/30 18:34:17;;;;;;;4.38;0.80;;;;;;;26.38;28.26;100797.00;10294128;28;20047;-58
2023/05/30 18:39:18;;;;;;;6.68;1.15;;;;;;;25.81;29.56;100805.00;10302502;28;20043;-58
2023/05/30 18:44:20;;;;;;;4.82;0.80;;;;;;;25.41;30.17;100808.28;10293057;28;20038;-59
2023/05/30 18:49:22;;;;;;;3.88;0.70;;;;;;;24.98;30.66;100810.94;10294798;28;20517;-58
2023/05/30 18:54:24;;;;;;;5.68;0.80;;;;;;;24.54;31.46;100817.34;10281151;28;20160;-59
2023/05/30 18:59:25;;;;;;;6.22;0.93;;;;;;;24.19;32.13;100815.00;10302240;28;20038;-59
2023/05/30 19:04:27;;;;;;;3.85;0.68;;;;;;;23.95;32.36;100820.72;10295729;28;20125;-59
2023/05/30 19:09:28;;;;;;;3.47;0.80;;;;;;;23.63;32.89;100814.19;10299501;28;20470;-59
2023/05/30 19:14:30;;;;;;;3.72;0.95;;;;;;;23.41;33.18;100823.16;10305397;28;20043;-60
2023/05/30 19:19:31;;;;;;;5.50;0.73;;;;;;;23.13;33.64;100835.88;10296974;28;20076;-59
2023/05/30 19:24:32;;;;;;;6.50;0.95;;;;;;;22.91;33.72;100838.47;10302608;28;20590;-60
2023/05/30 19:29:34;;;;;;;3.75;0.80;;;;;;;22.67;33.41;100842.38;10299899;28;20039;-59
2023/05/30 19:34:35;;;;;;;2.83;0.70;;;;;;;22.51;33.76;100852.22;10296277;28;20073;-60
2023/05/30 19:39:37;;;;;;;5.85;0.80;;;;;;;22.17;34.05;100854.75;10284425;28;20038;-60
2023/05/30 19:44:38;;;;;;;4.85;0.55;;;;;;;21.94;33.92;100859.22;10296167;28;20084;-60
2023/05/30 19:49:40;;;;;;;3.45;0.80;;;;;;;21.79;34.10;100864.31;10300215;28;20140;-59
2023/05/30 19:54:41;;;;;;;4.75;0.80;;;;;;;21.61;34.50;100858.97;10293318;28;20065;-60
2023/05/30 19:59:43;;;;;;;3.22;0.70;;;;;;;21.43;34.53;100874.41;10295556;28;20049;-59
2023/05/30 20:04:44;;;;;;;3.92;1.13;;;;;;;21.30;34.88;100878.13;10295803;28;20058;-59
2023/05/30 20:09:46;;;;;;;5.38;0.80;;;;;;;21.07;35.36;100878.94;10303428;28;20149;-60
2023/05/30 20:14:47;;;;;;;2.72;0.75;;;;;;;20.85;35.34;100885.94;10294276;28;20588;-59
2023/05/30 20:19:50;;;;;;;5.47;0.98;;;;;;;20.72;35.20;100892.44;10300079;28;20589;-60
2023/05/30 20:24:52;;;;;;;9.57;1.00;;;;;;;20.57;35.18;100896.34;10297052;28;20149;-59
2023/05/30 20:29:53;;;;;;;5.95;0.85;;;;;;;20.46;35.57;100896.28;10290911;28;20042;-60
2023/05/30 20:34:55;;;;;;;5.35;0.65;;;;;;;20.34;35.89;100897.06;10280896;28;20062;-61
2023/05/30 20:39:59;;;;;;;5.55;1.13;;;;;;;20.24;35.84;100896.75;10296423;28;20057;-61
2023/05/30 20:45:00;;;;;;;6.90;1.02;;;;;;;20.18;36.26;100897.63;10305853;28;20042;-61
2023/05/30 20:50:03;;;;;;;3.92;0.80;;;;;;;20.03;36.65;100900.75;10296437;28;20113;-61
2023/05/30 20:55:05;;;;;;;4.57;0.80;;;;;;;19.92;36.90;100905.03;10295443;28;20043;-61
2023/05/30 21:00:08;;;;;;;4.68;1.35;;;;;;;19.79;37.15;100908.72;10292849;28;20047;-60
2023/05/30 21:05:10;;;;;;;4.40;0.73;;;;;;;19.69;37.41;100910.25;10293681;28;20048;-61
2023/05/30 21:10:11;;;;;;;4.22;1.33;;;;;;;19.57;37.55;100907.44;10293858;28;20117;-59
2023/05/30 21:15:13;;;;;;;5.00;0.88;;;;;;;19.50;37.79;100909.38;10294525;28;20051;-60
2023/05/30 21:20:14;;;;;;;3.28;0.90;;;;;;;19.41;38.08;100908.78;10232083;28;20057;-60
2023/05/30 21:25:16;;;;;;;8.95;1.30;;;;;;;19.36;38.07;100914.91;10208559;28;20057;-60
2023/05/30 21:30:18;;;;;;;4.57;1.00;;;;;;;19.25;38.47;100914.78;10296988;28;20120;-59
2023/05/30 21:35:22;;;;;;;8.93;1.25;;;;;;;19.15;39.00;100921.53;10307634;23;20054;-59
2023/05/30 21:40:23;;;;;;;5.45;1.20;;;;;;;19.12;39.19;100915.69;10313721;23;20069;-60
2023/05/30 21:45:25;;;;;;;6.25;0.95;;;;;;;19.00;39.60;100910.09;10312767;23;20498;-60
2023/05/30 21:50:26;;;;;;;6.05;1.25;;;;;;;18.91;39.95;100903.22;10312729;23;20075;-59
2023/05/30 21:55:28;;;;;;;3.28;0.80;;;;;;;18.88;40.12;100911.81;10307355;28;20046;-60
2023/05/30 22:00:30;;;;;;;6.45;1.08;;;;;;;18.80;40.38;100916.50;10319348;28;20046;-59
2023/05/30 22:05:31;;;;;;;6.88;1.02;;;;;;;18.73;40.82;100921.09;10308791;28;20053;-58
2023/05/30 22:10:32;;;;;;;6.55;1.42;;;;;;;18.62;41.02;100927.19;10307820;28;20050;-58
2023/05/30 22:15:34;;;;;;;5.00;1.08;;;;;;;18.59;41.45;100930.38;10306043;28;20494;-60
2023/05/30 22:20:36;;;;;;;6.00;1.00;;;;;;;18.60;41.37;100932.88;10290844;23;20058;-62
2023/05/30 22:25:37;;;;;;;10.73;1.60;;;;;;;18.55;41.81;100929.13;10276631;28;20069;-61
2023/05/30 22:30:39;;;;;;;6.50;0.93;;;;;;;18.51;41.91;100930.59;10298962;23;20137;-62
2023/05/30 22:35:40;;;;;;;5.57;1.25;;;;;;;18.42;42.30;100939.00;10309101;28;20050;-62
2023/05/30 22:40:41;;;;;;;3.92;1.25;;;;;;;18.33;42.73;100948.44;10305178;28;20046;-62
2023/05/30 22:45:43;;;;;;;4.63;1.10;;;;;;;18.22;42.95;100939.03;10307648;28;20046;-61
2023/05/30 22:50:44;;;;;;;6.63;1.38;;;;;;;18.14;43.33;100932.97;10302374;28;20050;-61
2023/05/30 22:55:46;;;;;;;3.80;0.98;;;;;;;18.03;43.61;100929.88;10295345;28;20061;-62
2023/05/30 23:00:47;;;;;;;7.80;1.25;;;;;;;17.92;43.88;100929.66;10305966;28;20043;-61
2023/05/30 23:05:49;;;;;;;2.22;0.93;;;;;;;17.88;44.11;100923.81;10302377;28;20486;-61
2023/05/30 23:10:50;;;;;;;3.70;0.80;;;;;;;17.88;44.27;100925.69;10304594;28;20066;-61